sensor_id;sensor_type;location;lat;lon;timestamp;temperature;humidity
9824;DHT22;4951;50.778;7.196;2024-03-25T00:00:47;6.00;1.00
9824;DHT22;4951;50.778;7.196;2024-03-25T00:03:13;5.90;1.00
9824;DHT22;4951;50.778;7.196;2024-03-25T00:05:40;5.90;1.00
9824;DHT22;4951;50.778;7.196;2024-03-25T00:08:06;5.90;1.00
9824;DHT22;4951;50.778;7.196;2024-03-25T00:10:34;5.90;1.00
9824;DHT22;4951;50.778;7.196;2024-03-25T00:13:00;5.90;1.00
9824;DHT22;4951;50.778;7.196;2024-03-25T00:15:27;5.80;1.00
9824;DHT22;4951;50.778;7.196;2024-03-25T00:17:58;5.80;1.00
9824;DHT22;4951;50.778;7.196;2024-03-25T00:20:25;5.80;1.00
9824;DHT22;4951;50.778;7.196;2024-03-25T00:22:51;5.80;1.00
9824;DHT22;4951;50.778;7.196;2024-03-25T00:25:18;5.80;1.00
9824;DHT22;4951;50.778;7.196;2024-03-25T00:27:44;5.80;1.00
9824;DHT22;4951;50.778;7.196;2024-03-25T00:30:12;5.80;1.00
9824;DHT22;4951;50.778;7.196;2024-03-25T00:32:39;5.90;1.00
9824;DHT22;4951;50.778;7.196;2024-03-25T00:35:09;5.90;1.00
9824;DHT22;4951;50.778;7.196;2024-03-25T00:37:35;5.90;1.00
9824;DHT22;4951;50.778;7.196;2024-03-25T00:40:02;5.90;1.00
9824;DHT22;4951;50.778;7.196;2024-03-25T00:42:29;5.90;1.00
9824;DHT22;4951;50.778;7.196;2024-03-25T00:44:57;5.90;1.00
9824;DHT22;4951;50.778;7.196;2024-03-25T00:47:23;6.00;1.00
9824;DHT22;4951;50.778;7.196;2024-03-25T00:49:50;6.00;1.00
9824;DHT22;4951;50.778;7.196;2024-03-25T00:52:18;6.00;1.00
9824;DHT22;4951;50.778;7.196;2024-03-25T00:54:45;6.00;1.00
9824;DHT22;4951;50.778;7.196;2024-03-25T00:57:12;6.00;1.00
9824;DHT22;4951;50.778;7.196;2024-03-25T00:59:39;6.00;1.00
9824;DHT22;4951;50.778;7.196;2024-03-25T01:02:05;5.90;1.00
9824;DHT22;4951;50.778;7.196;2024-03-25T01:04:34;5.90;1.00
9824;DHT22;4951;50.778;7.196;2024-03-25T01:07:00;5.90;1.00
9824;DHT22;4951;50.778;7.196;2024-03-25T01:09:28;5.80;1.00
9824;DHT22;4951;50.778;7.196;2024-03-25T01:11:56;5.80;1.00
9824;DHT22;4951;50.778;7.196;2024-03-25T01:14:22;5.80;1.00
9824;DHT22;4951;50.778;7.196;2024-03-25T01:16:48;5.80;1.00
9824;DHT22;4951;50.778;7.196;2024-03-25T01:19:16;5.80;1.00
9824;DHT22;4951;50.778;7.196;2024-03-25T01:21:42;5.70;7.00
9824;DHT22;4951;50.778;7.196;2024-03-25T01:24:10;5.70;43.40
9824;DHT22;4951;50.778;7.196;2024-03-25T01:26:37;5.70;56.70
9824;DHT22;4951;50.778;7.196;2024-03-25T01:29:04;5.70;72.70
9824;DHT22;4951;50.778;7.196;2024-03-25T01:31:30;5.70;99.90
9824;DHT22;4951;50.778;7.196;2024-03-25T01:33:57;5.70;99.90
9824;DHT22;4951;50.778;7.196;2024-03-25T01:36:23;5.70;99.90
9824;DHT22;4951;50.778;7.196;2024-03-25T01:38:51;5.70;99.90
9824;DHT22;4951;50.778;7.196;2024-03-25T01:41:22;5.70;99.90
9824;DHT22;4951;50.778;7.196;2024-03-25T01:43:51;5.70;99.90
9824;DHT22;4951;50.778;7.196;2024-03-25T01:46:17;5.70;99.90
9824;DHT22;4951;50.778;7.196;2024-03-25T01:48:45;5.70;99.90
9824;DHT22;4951;50.778;7.196;2024-03-25T01:51:13;5.70;99.90
9824;DHT22;4951;50.778;7.196;2024-03-25T01:53:42;5.70;99.90
9824;DHT22;4951;50.778;7.196;2024-03-25T01:56:08;5.70;99.90
9824;DHT22;4951;50.778;7.196;2024-03-25T01:58:36;5.70;99.90
9824;DHT22;4951;50.778;7.196;2024-03-25T02:01:05;5.70;99.90
9824;DHT22;4951;50.778;7.196;2024-03-25T02:03:34;5.70;99.90
9824;DHT22;4951;50.778;7.196;2024-03-25T02:06:02;5.70;99.90
9824;DHT22;4951;50.778;7.196;2024-03-25T02:08:31;5.70;99.90
9824;DHT22;4951;50.778;7.196;2024-03-25T02:10:58;5.70;99.90
9824;DHT22;4951;50.778;7.196;2024-03-25T02:13:25;5.70;99.90
9824;DHT22;4951;50.778;7.196;2024-03-25T02:15:51;5.70;99.90
9824;DHT22;4951;50.778;7.196;2024-03-25T02:18:21;5.70;99.90
9824;DHT22;4951;50.778;7.196;2024-03-25T02:20:47;5.70;99.90
9824;DHT22;4951;50.778;7.196;2024-03-25T02:23:15;5.70;99.90
9824;DHT22;4951;50.778;7.196;2024-03-25T02:25:42;5.70;99.90
9824;DHT22;4951;50.778;7.196;2024-03-25T02:28:11;5.70;99.90
9824;DHT22;4951;50.778;7.196;2024-03-25T02:30:37;5.60;99.90
9824;DHT22;4951;50.778;7.196;2024-03-25T02:33:06;5.60;99.90
9824;DHT22;4951;50.778;7.196;2024-03-25T02:35:32;5.60;99.90
9824;DHT22;4951;50.778;7.196;2024-03-25T02:37:59;5.50;99.90
9824;DHT22;4951;50.778;7.196;2024-03-25T02:40:26;5.50;95.50
9824;DHT22;4951;50.778;7.196;2024-03-25T02:42:53;5.40;78.00
9824;DHT22;4951;50.778;7.196;2024-03-25T02:45:21;5.40;48.20
9824;DHT22;4951;50.778;7.196;2024-03-25T02:47:49;5.30;38.40
9824;DHT22;4951;50.778;7.196;2024-03-25T02:50:16;5.20;49.20
9824;DHT22;4951;50.778;7.196;2024-03-25T02:52:43;5.10;65.20
9824;DHT22;4951;50.778;7.196;2024-03-25T02:55:09;5.10;86.30
9824;DHT22;4951;50.778;7.196;2024-03-25T02:57:36;5.00;99.90
9824;DHT22;4951;50.778;7.196;2024-03-25T03:00:03;5.00;99.90
9824;DHT22;4951;50.778;7.196;2024-03-25T03:02:32;5.00;99.90
9824;DHT22;4951;50.778;7.196;2024-03-25T03:04:58;5.00;99.90
9824;DHT22;4951;50.778;7.196;2024-03-25T03:07:25;4.90;99.90
9824;DHT22;4951;50.778;7.196;2024-03-25T03:09:51;4.90;99.90
9824;DHT22;4951;50.778;7.196;2024-03-25T03:12:18;4.90;99.90
9824;DHT22;4951;50.778;7.196;2024-03-25T03:14:44;4.80;99.90
9824;DHT22;4951;50.778;7.196;2024-03-25T03:17:12;4.70;99.90
9824;DHT22;4951;50.778;7.196;2024-03-25T03:19:39;4.70;99.90
9824;DHT22;4951;50.778;7.196;2024-03-25T03:22:06;4.60;99.90
9824;DHT22;4951;50.778;7.196;2024-03-25T03:24:32;4.60;99.90
9824;DHT22;4951;50.778;7.196;2024-03-25T03:27:00;4.50;99.90
9824;DHT22;4951;50.778;7.196;2024-03-25T03:29:27;4.50;99.90
9824;DHT22;4951;50.778;7.196;2024-03-25T03:31:54;4.60;99.90
9824;DHT22;4951;50.778;7.196;2024-03-25T03:34:20;4.60;99.90
9824;DHT22;4951;50.778;7.196;2024-03-25T03:36:48;4.60;99.90
9824;DHT22;4951;50.778;7.196;2024-03-25T03:39:15;4.60;99.90
9824;DHT22;4951;50.778;7.196;2024-03-25T03:41:43;4.70;99.90
9824;DHT22;4951;50.778;7.196;2024-03-25T03:44:09;4.70;99.90
9824;DHT22;4951;50.778;7.196;2024-03-25T03:46:38;4.70;99.90
9824;DHT22;4951;50.778;7.196;2024-03-25T03:49:04;4.70;99.90
9824;DHT22;4951;50.778;7.196;2024-03-25T03:51:33;4.70;99.90
9824;DHT22;4951;50.778;7.196;2024-03-25T03:54:02;4.70;99.90
9824;DHT22;4951;50.778;7.196;2024-03-25T03:56:30;4.70;99.90
9824;DHT22;4951;50.778;7.196;2024-03-25T03:58:56;4.70;99.90
9824;DHT22;4951;50.778;7.196;2024-03-25T04:01:23;4.70;99.90
9824;DHT22;4951;50.778;7.196;2024-03-25T04:03:50;4.70;99.90
9824;DHT22;4951;50.778;7.196;2024-03-25T04:06:17;4.70;99.90
9824;DHT22;4951;50.778;7.196;2024-03-25T04:08:43;4.70;99.90
9824;DHT22;4951;50.778;7.196;2024-03-25T04:11:11;4.60;99.90
9824;DHT22;4951;50.778;7.196;2024-03-25T04:13:38;4.60;99.90
9824;DHT22;4951;50.778;7.196;2024-03-25T04:16:06;4.60;99.90
9824;DHT22;4951;50.778;7.196;2024-03-25T04:18:33;4.60;99.90
9824;DHT22;4951;50.778;7.196;2024-03-25T04:21:01;4.60;99.90
9824;DHT22;4951;50.778;7.196;2024-03-25T04:23:27;4.60;99.90
9824;DHT22;4951;50.778;7.196;2024-03-25T04:25:54;4.60;99.90
9824;DHT22;4951;50.778;7.196;2024-03-25T04:28:22;4.60;99.90
9824;DHT22;4951;50.778;7.196;2024-03-25T04:30:53;4.50;99.90
9824;DHT22;4951;50.778;7.196;2024-03-25T04:33:19;4.50;99.90
9824;DHT22;4951;50.778;7.196;2024-03-25T04:35:47;4.40;99.90
9824;DHT22;4951;50.778;7.196;2024-03-25T04:38:15;4.30;99.90
9824;DHT22;4951;50.778;7.196;2024-03-25T04:40:41;4.10;99.90
9824;DHT22;4951;50.778;7.196;2024-03-25T04:43:08;4.10;99.90
9824;DHT22;4951;50.778;7.196;2024-03-25T04:45:36;4.00;99.90
9824;DHT22;4951;50.778;7.196;2024-03-25T04:48:03;3.90;99.90
9824;DHT22;4951;50.778;7.196;2024-03-25T04:50:30;3.80;99.90
9824;DHT22;4951;50.778;7.196;2024-03-25T04:52:56;3.80;99.90
9824;DHT22;4951;50.778;7.196;2024-03-25T04:55:23;3.70;99.90
9824;DHT22;4951;50.778;7.196;2024-03-25T04:57:49;3.70;99.90
9824;DHT22;4951;50.778;7.196;2024-03-25T05:00:15;3.60;99.90
9824;DHT22;4951;50.778;7.196;2024-03-25T05:02:43;3.60;99.90
9824;DHT22;4951;50.778;7.196;2024-03-25T05:05:09;3.60;99.90
9824;DHT22;4951;50.778;7.196;2024-03-25T05:07:36;3.50;99.90
9824;DHT22;4951;50.778;7.196;2024-03-25T05:10:04;3.50;99.90
9824;DHT22;4951;50.778;7.196;2024-03-25T05:12:30;3.50;99.90
9824;DHT22;4951;50.778;7.196;2024-03-25T05:14:56;3.40;99.90
9824;DHT22;4951;50.778;7.196;2024-03-25T05:17:22;3.40;99.90
9824;DHT22;4951;50.778;7.196;2024-03-25T05:19:50;3.30;99.90
9824;DHT22;4951;50.778;7.196;2024-03-25T05:22:16;3.30;99.90
9824;DHT22;4951;50.778;7.196;2024-03-25T05:24:43;3.20;99.90
9824;DHT22;4951;50.778;7.196;2024-03-25T05:27:09;3.20;99.90
9824;DHT22;4951;50.778;7.196;2024-03-25T05:29:35;3.10;99.90
9824;DHT22;4951;50.778;7.196;2024-03-25T05:32:02;3.10;99.90
9824;DHT22;4951;50.778;7.196;2024-03-25T05:34:28;3.10;99.90
9824;DHT22;4951;50.778;7.196;2024-03-25T05:36:56;3.10;99.90
9824;DHT22;4951;50.778;7.196;2024-03-25T05:39:25;3.00;99.90
9824;DHT22;4951;50.778;7.196;2024-03-25T05:41:51;3.00;99.90
9824;DHT22;4951;50.778;7.196;2024-03-25T05:44:17;2.90;99.90
9824;DHT22;4951;50.778;7.196;2024-03-25T05:46:43;2.80;99.90
9824;DHT22;4951;50.778;7.196;2024-03-25T05:49:10;2.80;99.90
9824;DHT22;4951;50.778;7.196;2024-03-25T05:51:36;2.70;99.90
9824;DHT22;4951;50.778;7.196;2024-03-25T05:54:04;2.70;99.90
9824;DHT22;4951;50.778;7.196;2024-03-25T05:56:30;2.60;99.90
9824;DHT22;4951;50.778;7.196;2024-03-25T05:58:57;2.60;99.90
9824;DHT22;4951;50.778;7.196;2024-03-25T06:01:23;2.60;99.90
9824;DHT22;4951;50.778;7.196;2024-03-25T06:03:49;2.50;1.00
9824;DHT22;4951;50.778;7.196;2024-03-25T06:06:19;2.50;1.00
9824;DHT22;4951;50.778;7.196;2024-03-25T06:08:46;2.60;1.00
9824;DHT22;4951;50.778;7.196;2024-03-25T06:11:14;2.60;1.00
9824;DHT22;4951;50.778;7.196;2024-03-25T06:13:40;2.60;1.00
9824;DHT22;4951;50.778;7.196;2024-03-25T06:16:06;2.60;1.00
9824;DHT22;4951;50.778;7.196;2024-03-25T06:18:33;2.70;1.00
9824;DHT22;4951;50.778;7.196;2024-03-25T06:21:00;2.70;1.00
9824;DHT22;4951;50.778;7.196;2024-03-25T06:23:27;2.80;1.00
9824;DHT22;4951;50.778;7.196;2024-03-25T06:25:54;2.90;1.00
9824;DHT22;4951;50.778;7.196;2024-03-25T06:28:23;2.90;1.00
9824;DHT22;4951;50.778;7.196;2024-03-25T06:30:50;3.00;1.00
9824;DHT22;4951;50.778;7.196;2024-03-25T06:33:44;3.10;1.00
9824;DHT22;4951;50.778;7.196;2024-03-25T06:36:29;3.10;1.00
9824;DHT22;4951;50.778;7.196;2024-03-25T06:38:55;3.20;1.00
9824;DHT22;4951;50.778;7.196;2024-03-25T06:41:22;3.30;1.00
9824;DHT22;4951;50.778;7.196;2024-03-25T06:43:50;3.40;1.00
9824;DHT22;4951;50.778;7.196;2024-03-25T06:46:16;3.40;1.00
9824;DHT22;4951;50.778;7.196;2024-03-25T06:48:43;3.50;1.00
9824;DHT22;4951;50.778;7.196;2024-03-25T06:51:09;3.70;1.00
9824;DHT22;4951;50.778;7.196;2024-03-25T06:53:35;3.80;1.00
9824;DHT22;4951;50.778;7.196;2024-03-25T06:56:02;3.90;1.00
9824;DHT22;4951;50.778;7.196;2024-03-25T06:58:28;4.00;1.00
9824;DHT22;4951;50.778;7.196;2024-03-25T07:00:56;4.10;1.00
9824;DHT22;4951;50.778;7.196;2024-03-25T07:03:23;4.30;1.00
9824;DHT22;4951;50.778;7.196;2024-03-25T07:05:51;4.40;1.00
9824;DHT22;4951;50.778;7.196;2024-03-25T07:08:17;4.50;1.00
9824;DHT22;4951;50.778;7.196;2024-03-25T07:10:44;4.60;1.00
9824;DHT22;4951;50.778;7.196;2024-03-25T07:13:10;4.70;1.00
9824;DHT22;4951;50.778;7.196;2024-03-25T07:15:37;4.90;1.00
9824;DHT22;4951;50.778;7.196;2024-03-25T07:18:06;5.00;1.00
9824;DHT22;4951;50.778;7.196;2024-03-25T07:20:32;5.10;1.00
9824;DHT22;4951;50.778;7.196;2024-03-25T07:22:58;5.20;99.90
9824;DHT22;4951;50.778;7.196;2024-03-25T07:25:25;5.40;99.90
9824;DHT22;4951;50.778;7.196;2024-03-25T07:27:52;5.50;99.90
9824;DHT22;4951;50.778;7.196;2024-03-25T07:30:19;5.60;95.80
9824;DHT22;4951;50.778;7.196;2024-03-25T07:32:45;5.70;1.00
9824;DHT22;4951;50.778;7.196;2024-03-25T07:35:13;5.70;1.00
9824;DHT22;4951;50.778;7.196;2024-03-25T07:37:39;5.80;1.00
9824;DHT22;4951;50.778;7.196;2024-03-25T07:40:07;5.90;1.00
9824;DHT22;4951;50.778;7.196;2024-03-25T07:42:35;6.00;1.00
9824;DHT22;4951;50.778;7.196;2024-03-25T07:45:01;6.10;1.00
9824;DHT22;4951;50.778;7.196;2024-03-25T07:47:27;6.20;99.90
9824;DHT22;4951;50.778;7.196;2024-03-25T07:49:53;6.30;1.00
9824;DHT22;4951;50.778;7.196;2024-03-25T07:52:21;6.40;20.60
9824;DHT22;4951;50.778;7.196;2024-03-25T07:54:47;6.50;1.00
9824;DHT22;4951;50.778;7.196;2024-03-25T07:57:13;6.60;93.80
9824;DHT22;4951;50.778;7.196;2024-03-25T07:59:39;6.70;1.00
9824;DHT22;4951;50.778;7.196;2024-03-25T08:02:06;6.80;1.00
9824;DHT22;4951;50.778;7.196;2024-03-25T08:04:32;7.00;1.00
9824;DHT22;4951;50.778;7.196;2024-03-25T08:06:58;7.10;99.90
9824;DHT22;4951;50.778;7.196;2024-03-25T08:09:25;7.20;1.00
9824;DHT22;4951;50.778;7.196;2024-03-25T08:11:52;7.20;1.00
9824;DHT22;4951;50.778;7.196;2024-03-25T08:14:18;7.30;1.00
9824;DHT22;4951;50.778;7.196;2024-03-25T08:16:44;7.40;1.00
9824;DHT22;4951;50.778;7.196;2024-03-25T08:19:10;7.50;1.00
9824;DHT22;4951;50.778;7.196;2024-03-25T08:21:36;7.60;1.00
9824;DHT22;4951;50.778;7.196;2024-03-25T08:24:03;7.70;99.90
9824;DHT22;4951;50.778;7.196;2024-03-25T08:26:31;7.80;1.00
9824;DHT22;4951;50.778;7.196;2024-03-25T08:28:57;7.80;99.90
9824;DHT22;4951;50.778;7.196;2024-03-25T08:31:23;7.90;99.90
9824;DHT22;4951;50.778;7.196;2024-03-25T08:33:49;8.00;99.90
9824;DHT22;4951;50.778;7.196;2024-03-25T08:36:16;8.00;99.90
9824;DHT22;4951;50.778;7.196;2024-03-25T08:38:42;8.00;99.90
9824;DHT22;4951;50.778;7.196;2024-03-25T08:41:09;8.00;1.00
9824;DHT22;4951;50.778;7.196;2024-03-25T08:43:36;8.00;1.00
9824;DHT22;4951;50.778;7.196;2024-03-25T08:46:03;8.10;1.00
9824;DHT22;4951;50.778;7.196;2024-03-25T08:48:29;8.20;1.00
9824;DHT22;4951;50.778;7.196;2024-03-25T08:50:55;8.20;1.00
9824;DHT22;4951;50.778;7.196;2024-03-25T08:53:21;8.30;1.00
9824;DHT22;4951;50.778;7.196;2024-03-25T08:55:48;8.40;99.90
9824;DHT22;4951;50.778;7.196;2024-03-25T08:58:15;8.40;70.70
9824;DHT22;4951;50.778;7.196;2024-03-25T09:00:43;8.50;1.00
9824;DHT22;4951;50.778;7.196;2024-03-25T09:03:09;8.60;1.00
9824;DHT22;4951;50.778;7.196;2024-03-25T09:05:36;8.60;99.90
9824;DHT22;4951;50.778;7.196;2024-03-25T09:08:03;8.70;1.00
9824;DHT22;4951;50.778;7.196;2024-03-25T09:10:29;8.80;1.00
9824;DHT22;4951;50.778;7.196;2024-03-25T09:13:14;8.90;1.00
9824;DHT22;4951;50.778;7.196;2024-03-25T09:15:40;8.90;1.00
9824;DHT22;4951;50.778;7.196;2024-03-25T09:18:08;9.00;1.00
9824;DHT22;4951;50.778;7.196;2024-03-25T09:20:34;9.10;1.00
9824;DHT22;4951;50.778;7.196;2024-03-25T09:23:02;9.10;1.00
9824;DHT22;4951;50.778;7.196;2024-03-25T09:25:28;9.20;99.90
9824;DHT22;4951;50.778;7.196;2024-03-25T09:27:54;9.20;99.90
9824;DHT22;4951;50.778;7.196;2024-03-25T09:30:20;9.30;99.90
9824;DHT22;4951;50.778;7.196;2024-03-25T09:32:46;9.40;99.90
9824;DHT22;4951;50.778;7.196;2024-03-25T09:35:14;9.50;99.90
9824;DHT22;4951;50.778;7.196;2024-03-25T09:37:40;9.70;99.90
9824;DHT22;4951;50.778;7.196;2024-03-25T09:40:07;9.80;99.90
9824;DHT22;4951;50.778;7.196;2024-03-25T09:42:36;10.00;1.00
9824;DHT22;4951;50.778;7.196;2024-03-25T09:45:08;10.10;1.00
9824;DHT22;4951;50.778;7.196;2024-03-25T09:47:35;10.00;1.00
9824;DHT22;4951;50.778;7.196;2024-03-25T09:50:06;10.00;1.00
9824;DHT22;4951;50.778;7.196;2024-03-25T09:52:34;10.00;1.00
9824;DHT22;4951;50.778;7.196;2024-03-25T09:55:00;10.10;1.00
9824;DHT22;4951;50.778;7.196;2024-03-25T09:57:27;10.10;1.00
9824;DHT22;4951;50.778;7.196;2024-03-25T09:59:54;10.10;1.00
9824;DHT22;4951;50.778;7.196;2024-03-25T10:02:21;10.10;1.00
9824;DHT22;4951;50.778;7.196;2024-03-25T10:04:48;10.10;1.00
9824;DHT22;4951;50.778;7.196;2024-03-25T10:07:21;10.10;1.00
9824;DHT22;4951;50.778;7.196;2024-03-25T10:09:49;10.10;1.00
9824;DHT22;4951;50.778;7.196;2024-03-25T10:12:17;10.10;1.00
9824;DHT22;4951;50.778;7.196;2024-03-25T10:14:46;10.10;1.00
9824;DHT22;4951;50.778;7.196;2024-03-25T10:17:12;10.10;1.00
9824;DHT22;4951;50.778;7.196;2024-03-25T10:19:38;10.10;1.00
9824;DHT22;4951;50.778;7.196;2024-03-25T10:22:05;10.20;99.90
9824;DHT22;4951;50.778;7.196;2024-03-25T10:24:39;10.20;99.90
9824;DHT22;4951;50.778;7.196;2024-03-25T10:27:10;10.30;1.00
9824;DHT22;4951;50.778;7.196;2024-03-25T10:29:37;10.40;1.00
9824;DHT22;4951;50.778;7.196;2024-03-25T10:32:03;10.60;1.00
9824;DHT22;4951;50.778;7.196;2024-03-25T10:34:29;10.70;99.90
9824;DHT22;4951;50.778;7.196;2024-03-25T10:36:57;10.70;99.90
9824;DHT22;4951;50.778;7.196;2024-03-25T10:39:27;10.80;99.90
9824;DHT22;4951;50.778;7.196;2024-03-25T10:41:57;10.80;99.90
9824;DHT22;4951;50.778;7.196;2024-03-25T10:44:28;10.90;99.90
9824;DHT22;4951;50.778;7.196;2024-03-25T10:46:58;10.90;99.90
9824;DHT22;4951;50.778;7.196;2024-03-25T10:49:33;11.00;99.90
9824;DHT22;4951;50.778;7.196;2024-03-25T10:52:01;11.00;99.90
9824;DHT22;4951;50.778;7.196;2024-03-25T10:54:30;11.10;1.00
9824;DHT22;4951;50.778;7.196;2024-03-25T10:56:58;11.10;1.00
9824;DHT22;4951;50.778;7.196;2024-03-25T10:59:28;11.00;1.00
9824;DHT22;4951;50.778;7.196;2024-03-25T11:01:55;11.00;1.00
9824;DHT22;4951;50.778;7.196;2024-03-25T11:04:22;11.20;1.00
9824;DHT22;4951;50.778;7.196;2024-03-25T11:06:48;11.30;1.00
9824;DHT22;4951;50.778;7.196;2024-03-25T11:09:23;11.20;1.00
9824;DHT22;4951;50.778;7.196;2024-03-25T11:11:52;11.20;1.00
9824;DHT22;4951;50.778;7.196;2024-03-25T11:14:18;11.10;1.00
9824;DHT22;4951;50.778;7.196;2024-03-25T11:16:51;11.10;1.00
9824;DHT22;4951;50.778;7.196;2024-03-25T11:19:18;11.00;1.00
9824;DHT22;4951;50.778;7.196;2024-03-25T11:21:44;11.00;1.00
9824;DHT22;4951;50.778;7.196;2024-03-25T11:24:10;11.10;1.00
9824;DHT22;4951;50.778;7.196;2024-03-25T11:26:40;11.30;1.00
9824;DHT22;4951;50.778;7.196;2024-03-25T11:29:07;11.50;1.00
9824;DHT22;4951;50.778;7.196;2024-03-25T11:31:34;11.60;1.00
9824;DHT22;4951;50.778;7.196;2024-03-25T11:34:05;11.60;1.00
9824;DHT22;4951;50.778;7.196;2024-03-25T11:36:31;11.60;1.00
9824;DHT22;4951;50.778;7.196;2024-03-25T11:38:58;11.70;1.00
9824;DHT22;4951;50.778;7.196;2024-03-25T11:41:25;11.80;1.00
9824;DHT22;4951;50.778;7.196;2024-03-25T11:43:51;11.90;1.00
9824;DHT22;4951;50.778;7.196;2024-03-25T11:46:19;11.90;1.00
9824;DHT22;4951;50.778;7.196;2024-03-25T11:48:45;12.00;1.00
9824;DHT22;4951;50.778;7.196;2024-03-25T11:51:16;11.90;1.00
9824;DHT22;4951;50.778;7.196;2024-03-25T11:53:42;11.70;1.00
9824;DHT22;4951;50.778;7.196;2024-03-25T11:56:10;11.60;1.00
9824;DHT22;4951;50.778;7.196;2024-03-25T11:58:37;11.40;1.00
9824;DHT22;4951;50.778;7.196;2024-03-25T12:01:04;11.60;1.00
9824;DHT22;4951;50.778;7.196;2024-03-25T12:03:30;11.90;1.00
9824;DHT22;4951;50.778;7.196;2024-03-25T12:05:59;12.30;1.00
9824;DHT22;4951;50.778;7.196;2024-03-25T12:08:27;12.70;1.00
9824;DHT22;4951;50.778;7.196;2024-03-25T12:10:53;13.10;1.00
9824;DHT22;4951;50.778;7.196;2024-03-25T12:13:38;13.30;1.00
9824;DHT22;4951;50.778;7.196;2024-03-25T12:16:06;13.50;1.00
9824;DHT22;4951;50.778;7.196;2024-03-25T12:18:32;13.60;1.00
9824;DHT22;4951;50.778;7.196;2024-03-25T12:20:58;13.60;1.00
9824;DHT22;4951;50.778;7.196;2024-03-25T12:23:30;13.80;1.00
9824;DHT22;4951;50.778;7.196;2024-03-25T12:25:58;14.00;1.00
9824;DHT22;4951;50.778;7.196;2024-03-25T12:28:25;14.00;1.00
9824;DHT22;4951;50.778;7.196;2024-03-25T12:30:52;14.00;1.00
9824;DHT22;4951;50.778;7.196;2024-03-25T12:33:18;14.00;1.00
9824;DHT22;4951;50.778;7.196;2024-03-25T12:35:49;14.00;1.00
9824;DHT22;4951;50.778;7.196;2024-03-25T12:38:23;13.90;99.90
9824;DHT22;4951;50.778;7.196;2024-03-25T12:40:51;13.70;99.90
9824;DHT22;4951;50.778;7.196;2024-03-25T12:43:17;13.60;99.90
9824;DHT22;4951;50.778;7.196;2024-03-25T12:45:43;13.50;99.90
9824;DHT22;4951;50.778;7.196;2024-03-25T12:48:10;13.50;99.90
9824;DHT22;4951;50.778;7.196;2024-03-25T12:50:37;13.60;99.90
9824;DHT22;4951;50.778;7.196;2024-03-25T12:53:03;13.70;99.90
9824;DHT22;4951;50.778;7.196;2024-03-25T12:55:30;13.80;99.90
9824;DHT22;4951;50.778;7.196;2024-03-25T12:57:57;13.90;99.90
9824;DHT22;4951;50.778;7.196;2024-03-25T13:00:23;14.00;99.90
9824;DHT22;4951;50.778;7.196;2024-03-25T13:02:49;14.10;99.90
9824;DHT22;4951;50.778;7.196;2024-03-25T13:05:16;14.00;99.90
9824;DHT22;4951;50.778;7.196;2024-03-25T13:07:42;14.00;99.90
9824;DHT22;4951;50.778;7.196;2024-03-25T13:10:08;14.10;99.90
9824;DHT22;4951;50.778;7.196;2024-03-25T13:12:34;14.30;99.90
9824;DHT22;4951;50.778;7.196;2024-03-25T13:15:02;14.60;99.90
9824;DHT22;4951;50.778;7.196;2024-03-25T13:17:28;14.80;99.90
9824;DHT22;4951;50.778;7.196;2024-03-25T13:19:54;15.10;99.90
9824;DHT22;4951;50.778;7.196;2024-03-25T13:22:20;15.40;99.90
9824;DHT22;4951;50.778;7.196;2024-03-25T13:24:46;15.60;99.90
9824;DHT22;4951;50.778;7.196;2024-03-25T13:27:12;15.80;99.90
9824;DHT22;4951;50.778;7.196;2024-03-25T13:29:38;15.90;99.90
9824;DHT22;4951;50.778;7.196;2024-03-25T13:32:06;16.00;99.90
9824;DHT22;4951;50.778;7.196;2024-03-25T13:34:32;16.00;99.90
9824;DHT22;4951;50.778;7.196;2024-03-25T13:36:58;16.10;99.90
9824;DHT22;4951;50.778;7.196;2024-03-25T13:39:24;16.30;99.90
9824;DHT22;4951;50.778;7.196;2024-03-25T13:41:50;16.40;99.90
9824;DHT22;4951;50.778;7.196;2024-03-25T13:44:16;16.40;99.90
9824;DHT22;4951;50.778;7.196;2024-03-25T13:46:42;16.60;99.90
9824;DHT22;4951;50.778;7.196;2024-03-25T13:49:10;17.10;99.90
9824;DHT22;4951;50.778;7.196;2024-03-25T13:51:36;17.70;99.90
9824;DHT22;4951;50.778;7.196;2024-03-25T13:54:02;18.40;99.90
9824;DHT22;4951;50.778;7.196;2024-03-25T13:56:28;18.90;99.90
9824;DHT22;4951;50.778;7.196;2024-03-25T13:58:55;19.30;99.90
9824;DHT22;4951;50.778;7.196;2024-03-25T14:01:21;19.60;99.90
9824;DHT22;4951;50.778;7.196;2024-03-25T14:03:47;19.70;99.90
9824;DHT22;4951;50.778;7.196;2024-03-25T14:06:14;19.70;96.30
9824;DHT22;4951;50.778;7.196;2024-03-25T14:08:40;19.80;93.80
9824;DHT22;4951;50.778;7.196;2024-03-25T14:11:07;20.00;75.10
9824;DHT22;4951;50.778;7.196;2024-03-25T14:13:34;20.10;58.90
9824;DHT22;4951;50.778;7.196;2024-03-25T14:16:00;20.30;46.90
9824;DHT22;4951;50.778;7.196;2024-03-25T14:18:27;20.60;33.50
9824;DHT22;4951;50.778;7.196;2024-03-25T14:20:53;20.90;33.90
9824;DHT22;4951;50.778;7.196;2024-03-25T14:23:20;21.00;21.80
9824;DHT22;4951;50.778;7.196;2024-03-25T14:25:46;20.90;1.80
9824;DHT22;4951;50.778;7.196;2024-03-25T14:28:13;20.70;1.00
9824;DHT22;4951;50.778;7.196;2024-03-25T14:30:39;20.70;1.00
9824;DHT22;4951;50.778;7.196;2024-03-25T14:33:05;20.50;1.00
9824;DHT22;4951;50.778;7.196;2024-03-25T14:35:31;20.30;1.00
9824;DHT22;4951;50.778;7.196;2024-03-25T14:37:58;20.30;1.00
9824;DHT22;4951;50.778;7.196;2024-03-25T14:40:26;20.40;1.00
9824;DHT22;4951;50.778;7.196;2024-03-25T14:42:52;20.70;1.00
9824;DHT22;4951;50.778;7.196;2024-03-25T14:45:18;20.80;1.00
9824;DHT22;4951;50.778;7.196;2024-03-25T14:47:44;20.90;1.00
9824;DHT22;4951;50.778;7.196;2024-03-25T14:50:11;20.80;1.00
9824;DHT22;4951;50.778;7.196;2024-03-25T14:52:37;20.80;1.00
9824;DHT22;4951;50.778;7.196;2024-03-25T14:55:04;20.80;1.00
9824;DHT22;4951;50.778;7.196;2024-03-25T14:57:31;20.80;1.00
9824;DHT22;4951;50.778;7.196;2024-03-25T14:59:57;21.00;1.00
9824;DHT22;4951;50.778;7.196;2024-03-25T15:02:24;21.30;1.00
9824;DHT22;4951;50.778;7.196;2024-03-25T15:04:50;21.40;1.00
9824;DHT22;4951;50.778;7.196;2024-03-25T15:07:16;21.20;1.00
9824;DHT22;4951;50.778;7.196;2024-03-25T15:09:42;21.00;1.00
9824;DHT22;4951;50.778;7.196;2024-03-25T15:12:08;20.70;1.00
9824;DHT22;4951;50.778;7.196;2024-03-25T15:14:35;20.20;1.00
9824;DHT22;4951;50.778;7.196;2024-03-25T15:17:02;19.50;1.00
9824;DHT22;4951;50.778;7.196;2024-03-25T15:19:28;18.50;1.00
9824;DHT22;4951;50.778;7.196;2024-03-25T15:21:54;17.60;1.00
9824;DHT22;4951;50.778;7.196;2024-03-25T15:24:20;16.80;1.00
9824;DHT22;4951;50.778;7.196;2024-03-25T15:26:46;16.30;1.00
9824;DHT22;4951;50.778;7.196;2024-03-25T15:29:12;15.90;1.00
9824;DHT22;4951;50.778;7.196;2024-03-25T15:31:40;15.40;1.00
9824;DHT22;4951;50.778;7.196;2024-03-25T15:34:06;14.90;1.00
9824;DHT22;4951;50.778;7.196;2024-03-25T15:36:32;14.60;1.00
9824;DHT22;4951;50.778;7.196;2024-03-25T15:38:58;14.60;1.00
9824;DHT22;4951;50.778;7.196;2024-03-25T15:41:24;14.90;1.00
9824;DHT22;4951;50.778;7.196;2024-03-25T15:43:51;15.20;1.00
9824;DHT22;4951;50.778;7.196;2024-03-25T15:46:17;15.30;1.00
9824;DHT22;4951;50.778;7.196;2024-03-25T15:48:45;15.10;1.00
9824;DHT22;4951;50.778;7.196;2024-03-25T15:51:11;14.70;1.00
9824;DHT22;4951;50.778;7.196;2024-03-25T15:53:37;14.20;1.00
9824;DHT22;4951;50.778;7.196;2024-03-25T15:56:04;13.80;1.00
9824;DHT22;4951;50.778;7.196;2024-03-25T15:58:30;13.50;1.00
9824;DHT22;4951;50.778;7.196;2024-03-25T16:00:56;13.20;1.00
9824;DHT22;4951;50.778;7.196;2024-03-25T16:03:23;13.00;1.00
9824;DHT22;4951;50.778;7.196;2024-03-25T16:05:51;12.80;1.00
9824;DHT22;4951;50.778;7.196;2024-03-25T16:08:17;12.70;1.00
9824;DHT22;4951;50.778;7.196;2024-03-25T16:10:43;12.60;1.00
9824;DHT22;4951;50.778;7.196;2024-03-25T16:13:09;12.50;1.00
9824;DHT22;4951;50.778;7.196;2024-03-25T16:15:35;12.40;1.00
9824;DHT22;4951;50.778;7.196;2024-03-25T16:18:02;12.30;1.00